Time;durP1;ratioP1;P1;durP2;ratioP2;P2;SDS_P1;SDS_P2;PMS_P1;PMS_P2;Temp;Humidity;BMP_temperature;BMP_pressure;BME280_temperature;BME280_humidity;BME280_pressure;Samples;Min_cycle;Max_cycle;Signal;HPM_P1;HPM_P2
2021/12/12 00:02:12;;;;;;;6.78;3.25;;;;;;;2.93;80.13;100818.44;5093109;28;20090;-79
2021/12/12 00:04:44;;;;;;;12.43;3.35;;;;;;;2.92;80.15;100814.09;5077337;28;20032;-80
2021/12/12 00:07:13;;;;;;;7.32;2.60;;;;;;;2.94;80.12;100810.31;5077326;28;20107;-84
2021/12/12 00:09:43;;;;;;;8.90;2.75;;;;;;;2.95;80.00;100811.16;5077371;28;20040;-82
2021/12/12 00:12:14;;;;;;;7.47;2.88;;;;;;;2.94;80.13;100809.47;5077412;28;20090;-80
2021/12/12 00:14:39;;;;;;;7.63;2.80;;;;;;;2.95;79.66;100803.16;5078210;28;20028;-80
2021/12/12 00:17:09;;;;;;;13.38;2.50;;;;;;;2.96;80.02;100812.84;5080762;28;20186;-81
2021/12/12 00:19:35;;;;;;;6.20;2.33;;;;;;;2.98;79.84;100801.06;5080626;28;20044;-80
2021/12/12 00:22:05;;;;;;;7.32;2.72;;;;;;;2.98;79.87;100794.88;5081696;28;20035;-82
2021/12/12 00:24:31;;;;;;;7.38;2.25;;;;;;;2.98;79.76;100801.06;5082303;28;20032;-82
2021/12/12 00:26:58;;;;;;;8.70;2.42;;;;;;;2.98;79.98;100802.88;5082125;28;20044;-85
2021/12/12 00:29:25;;;;;;;9.27;2.65;;;;;;;2.99;79.97;100805.41;5082198;28;20040;-84
2021/12/12 00:31:53;;;;;;;6.78;2.00;;;;;;;2.99;79.83;100810.72;5082051;28;20036;-82
2021/12/12 00:34:21;;;;;;;7.57;2.63;;;;;;;3.02;79.94;100801.59;5081288;28;20029;-81
2021/12/12 00:36:46;;;;;;;7.07;2.30;;;;;;;3.03;80.07;100797.97;5080307;28;20444;-80
2021/12/12 00:39:16;;;;;;;8.80;2.35;;;;;;;3.03;79.54;100804.13;5078139;28;20032;-83
2021/12/12 00:42:30;;;;;;;10.57;2.90;;;;;;;3.05;79.32;100801.28;5077784;28;20032;-80
2021/12/12 00:44:58;;;;;;;6.82;2.28;;;;;;;3.04;79.24;100791.66;5071867;28;20105;-80
2021/12/12 00:47:24;;;;;;;9.27;3.05;;;;;;;3.05;79.21;100787.97;5076317;28;20059;-80
2021/12/12 00:49:49;;;;;;;7.32;2.13;;;;;;;3.05;78.94;100780.81;5076714;28;20459;-78
2021/12/12 00:52:18;;;;;;;5.55;1.80;;;;;;;3.06;79.10;100781.66;5076816;28;20433;-79
2021/12/12 00:54:48;;;;;;;4.72;2.38;;;;;;;3.07;78.88;100775.34;5077412;28;20040;-80
2021/12/12 00:57:18;;;;;;;8.63;2.45;;;;;;;3.08;78.73;100775.22;5078147;28;20056;-80
2021/12/12 00:59:47;;;;;;;4.63;1.92;;;;;;;3.05;78.80;100778.16;5093600;28;20025;-80
2021/12/12 01:02:17;;;;;;;6.30;3.03;;;;;;;3.07;78.68;100770.88;5079270;28;20062;-79
2021/12/12 01:04:46;;;;;;;4.55;2.20;;;;;;;3.03;78.79;100766.84;5079001;28;20112;-77
2021/12/12 01:07:17;;;;;;;4.43;2.08;;;;;;;3.03;78.75;100768.69;5078288;28;20115;-83
2021/12/12 01:09:47;;;;;;;5.50;2.22;;;;;;;3.02;79.07;100767.84;5080276;28;20025;-81
2021/12/12 01:12:17;;;;;;;7.07;2.50;;;;;;;3.01;78.73;100766.16;5077941;28;20085;-79
2021/12/12 01:14:47;;;;;;;10.77;2.17;;;;;;;3.02;78.74;100772.31;5076975;28;20051;-83
2021/12/12 01:17:21;;;;;;;5.80;1.92;;;;;;;3.03;78.61;100768.69;5092116;28;20025;-80
2021/12/12 01:19:54;;;;;;;6.50;2.33;;;;;;;3.02;78.49;100759.00;5075676;28;20121;-78
2021/12/12 01:22:29;;;;;;;6.45;1.98;;;;;;;3.12;78.31;100757.97;5076301;28;20455;-79
2021/12/12 01:25:05;;;;;;;5.55;1.95;;;;;;;3.06;78.76;100758.53;5077260;28;20036;-82
2021/12/12 01:27:30;;;;;;;5.32;1.60;;;;;;;3.04;78.32;100755.22;5045317;27;20040;-80
2021/12/12 01:29:56;;;;;;;7.13;2.93;;;;;;;3.07;78.08;100768.22;5079460;28;20485;-81
2021/12/12 01:32:29;;;;;;;6.03;1.67;;;;;;;3.10;78.16;100767.09;5078787;28;20285;-80
2021/12/12 01:34:56;;;;;;;5.13;1.95;;;;;;;3.09;77.81;100766.25;5080154;28;20048;-79
2021/12/12 01:40:18;;;;;;;5.10;1.80;;;;;;;3.13;77.53;100770.28;5079425;28;20040;-82
2021/12/12 01:42:54;;;;;;;6.18;2.17;;;;;;;3.18;77.60;100766.34;5075387;28;20083;-80
2021/12/12 01:45:38;;;;;;;4.72;1.58;;;;;;;3.18;77.48;100764.53;5075038;28;20372;-80
2021/12/12 01:48:18;;;;;;;9.85;2.30;;;;;;;3.20;77.07;100764.38;5075315;28;20040;-78
2021/12/12 01:50:51;;;;;;;3.55;1.35;;;;;;;3.21;77.24;100777.56;5074868;28;20036;-79
2021/12/12 01:53:20;;;;;;;4.43;1.90;;;;;;;3.23;77.11;100758.72;5075357;28;20032;-80
2021/12/12 01:55:51;;;;;;;4.10;1.67;;;;;;;3.32;76.58;100765.84;5075085;28;20028;-80
2021/12/12 01:58:20;;;;;;;7.10;1.60;;;;;;;3.28;77.00;100756.47;5075025;28;20383;-80
2021/12/12 02:00:54;;;;;;;6.05;1.60;;;;;;;3.41;76.19;100748.94;5074883;28;20074;-80
2021/12/12 02:03:23;;;;;;;4.40;1.95;;;;;;;3.35;76.38;100749.56;5074986;28;20036;-78
2021/12/12 02:05:50;;;;;;;5.88;1.63;;;;;;;3.34;76.33;100761.22;5074772;28;20041;-77
2021/12/12 02:08:18;;;;;;;5.90;1.63;;;;;;;3.38;76.48;100754.59;5075373;28;20032;-78
2021/12/12 02:10:48;;;;;;;5.32;1.88;;;;;;;3.35;76.47;100746.91;5075202;28;20032;-80
2021/12/12 02:13:18;;;;;;;4.68;1.80;;;;;;;3.42;76.39;100750.63;5075454;28;20086;-80
2021/12/12 02:15:47;;;;;;;3.88;1.63;;;;;;;3.39;76.36;100754.44;5074569;28;20483;-78
2021/12/12 02:18:17;;;;;;;6.05;1.33;;;;;;;3.46;75.87;100744.00;5074234;28;20060;-78
2021/12/12 02:21:05;;;;;;;6.35;2.30;;;;;;;3.44;76.07;100752.16;5074639;28;20107;-79
2021/12/12 02:37:01;;;;;;;4.43;1.75;;;;;;;3.52;75.67;100743.41;5074218;28;20524;-80
2021/12/12 02:39:27;;;;;;;3.92;1.23;;;;;;;3.63;75.26;100748.50;5074034;28;20036;-78
2021/12/12 02:41:58;;;;;;;6.45;1.40;;;;;;;3.63;75.62;100750.34;5074346;28;20039;-81
2021/12/12 02:44:29;;;;;;;5.00;1.58;;;;;;;3.63;75.65;100745.84;5074280;28;20437;-80
2021/12/12 02:46:58;;;;;;;4.30;1.40;;;;;;;3.71;75.60;100742.44;5073988;28;20460;-78
2021/12/12 02:49:39;;;;;;;4.05;1.27;;;;;;;3.65;75.63;100733.22;5074278;28;20029;-81
2021/12/12 02:52:12;;;;;;;3.65;1.50;;;;;;;3.62;75.83;100735.34;5074188;28;20024;-78
2021/12/12 02:54:38;;;;;;;4.95;1.25;;;;;;;3.69;75.34;100739.91;5074779;28;20036;-79
2021/12/12 02:57:04;;;;;;;6.60;1.42;;;;;;;3.71;75.37;100737.94;5074017;28;20036;-80
2021/12/12 02:59:31;;;;;;;3.35;1.52;;;;;;;3.66;75.52;100740.22;5074003;28;20036;-79
2021/12/12 03:01:56;;;;;;;;;;;;;;;3.71;75.37;100743.25;5074403;28;20047;-79
2021/12/12 03:04:25;;;;;;;4.70;1.50;;;;;;;3.70;75.30;100736.25;5074159;28;19912;-77
2021/12/12 03:06:57;;;;;;;4.05;1.50;;;;;;;3.71;75.35;100735.28;5074115;28;20145;-80
2021/12/12 03:09:31;;;;;;;5.60;1.70;;;;;;;3.73;75.41;100735.97;5074023;28;20433;-81
2021/12/12 03:12:03;;;;;;;2.75;1.30;;;;;;;3.78;75.40;100732.81;5074028;28;20124;-80
2021/12/12 03:14:32;;;;;;;3.83;1.70;;;;;;;3.82;75.60;100732.34;5089627;28;20361;-79
2021/12/12 03:17:02;;;;;;;4.30;1.45;;;;;;;3.79;75.45;100732.66;5073864;28;20025;-79
2021/12/12 03:19:28;;;;;;;5.20;1.48;;;;;;;3.80;75.75;100733.50;5074212;28;20062;-79
2021/12/12 03:21:54;;;;;;;4.60;1.27;;;;;;;3.78;75.51;100736.31;5073443;28;20028;-79
2021/12/12 03:24:22;;;;;;;4.65;1.70;;;;;;;3.79;75.96;100738.00;5039406;27;20046;-78
2021/12/12 03:26:52;;;;;;;4.38;1.20;;;;;;;3.80;75.48;100739.66;5076319;28;20044;-78
2021/12/12 03:29:18;;;;;;;5.80;1.83;;;;;;;3.77;76.10;100731.13;5073989;28;20025;-81
2021/12/12 03:31:53;;;;;;;3.95;1.25;;;;;;;3.77;75.75;100731.97;5073594;28;20032;-78
2021/12/12 03:34:22;;;;;;;5.70;1.80;;;;;;;3.86;75.58;100743.56;5073912;28;20108;-79
2021/12/12 03:36:50;;;;;;;3.58;1.35;;;;;;;3.82;75.77;100736.84;5073635;28;20123;-78
2021/12/12 03:39:21;;;;;;;4.65;1.45;;;;;;;3.81;75.78;100729.84;5073633;28;20364;-79
2021/12/12 03:41:47;;;;;;;4.32;1.40;;;;;;;3.86;75.75;100734.72;5073753;28;20028;-79
2021/12/12 03:44:19;;;;;;;4.40;1.45;;;;;;;3.87;75.68;100733.72;5076917;28;20067;-80
2021/12/12 03:46:47;;;;;;;4.15;1.48;;;;;;;3.91;75.53;100729.78;5077237;28;20060;-77
2021/12/12 03:49:13;;;;;;;6.75;1.60;;;;;;;3.95;75.54;100739.13;5075629;28;20115;-79
2021/12/12 03:51:41;;;;;;;4.80;1.50;;;;;;;3.90;75.79;100730.75;5077280;28;20173;-79
2021/12/12 03:54:06;;;;;;;3.58;1.23;;;;;;;3.88;76.36;100730.06;5077245;28;20490;-78
2021/12/12 03:56:32;;;;;;;6.90;1.30;;;;;;;3.85;77.08;100725.88;5077394;28;20029;-80
2021/12/12 03:58:58;;;;;;;5.38;1.40;;;;;;;3.83;77.06;100731.38;5077338;28;20031;-80
2021/12/12 04:01:37;;;;;;;4.82;1.58;;;;;;;3.77;77.91;100737.31;5077443;28;20024;-79
2021/12/12 04:04:10;;;;;;;4.30;1.42;;;;;;;3.72;78.56;100733.44;5077559;28;20079;-80
2021/12/12 04:06:35;;;;;;;7.53;1.92;;;;;;;3.70;79.01;100736.25;5093123;28;20116;-81
2021/12/12 04:09:03;;;;;;;7.15;2.47;;;;;;;3.69;78.85;100723.91;5079982;28;20052;-81
2021/12/12 04:11:36;;;;;;;6.93;1.38;;;;;;;3.62;79.76;100720.19;5079650;28;20060;-82
2021/12/12 04:14:04;;;;;;;3.25;1.38;;;;;;;3.66;79.64;100726.88;5077557;28;20021;-81
2021/12/12 04:16:33;;;;;;;4.90;1.35;;;;;;;3.61;80.05;100723.84;5077004;28;20063;-79
2021/12/12 04:18:59;;;;;;;3.60;1.30;;;;;;;3.59;80.25;100725.81;5078083;28;20090;-81
2021/12/12 04:21:26;;;;;;;3.80;1.83;;;;;;;3.56;80.42;100727.97;5078870;28;20051;-81
2021/12/12 04:23:52;;;;;;;6.32;2.35;;;;;;;3.56;80.94;100728.81;5080394;28;20044;-78
2021/12/12 04:26:25;;;;;;;5.53;1.65;;;;;;;3.61;80.80;100728.31;5080336;28;20439;-79
2021/12/12 04:29:16;;;;;;;3.80;1.70;;;;;;;3.59;80.86;100725.81;5077780;28;20039;-81
2021/12/12 04:31:49;;;;;;;4.80;1.58;;;;;;;3.62;81.00;100733.50;5081024;28;20090;-80
2021/12/12 04:34:17;;;;;;;2.22;1.10;;;;;;;3.63;80.78;100729.84;5082198;28;20520;-80
2021/12/12 04:36:44;;;;;;;7.10;1.67;;;;;;;3.64;80.73;100723.53;5080417;28;20084;-79
2021/12/12 04:39:19;;;;;;;4.35;1.33;;;;;;;3.67;80.64;100722.41;5076616;28;20464;-79
2021/12/12 04:41:48;;;;;;;6.72;1.92;;;;;;;3.72;80.09;100726.28;5092338;28;20102;-85
2021/12/12 04:44:21;;;;;;;5.55;1.55;;;;;;;3.77;79.92;100717.81;5075941;28;20031;-80
2021/12/12 04:49:55;;;;;;;9.50;2.25;;;;;;;3.80;80.13;100723.69;5075778;28;20508;-79
2021/12/12 04:52:43;;;;;;;7.80;1.70;;;;;;;3.82;79.89;100729.69;5076023;28;20074;-81
2021/12/12 04:55:37;;;;;;;6.45;1.38;;;;;;;3.85;79.77;100723.22;5075620;28;20047;-81
2021/12/12 04:58:20;;;;;;;7.68;1.50;;;;;;;3.86;79.60;100732.06;5076132;28;20089;-79
2021/12/12 05:00:52;;;;;;;4.38;1.77;;;;;;;3.90;80.12;100728.09;5075977;28;20043;-79
2021/12/12 05:03:28;;;;;;;4.78;2.30;;;;;;;3.87;80.36;100726.56;5074604;28;20352;-79
2021/12/12 05:06:06;;;;;;;5.95;2.40;;;;;;;3.78;81.43;100720.31;5076322;28;20115;-80
2021/12/12 05:08:37;;;;;;;7.32;1.50;;;;;;;3.69;82.83;100733.75;5075356;28;20509;-82
2021/12/12 05:11:11;;;;;;;4.03;1.48;;;;;;;3.67;83.55;100717.91;5075716;28;20410;-79
2021/12/12 05:14:04;;;;;;;5.75;2.35;;;;;;;3.52;84.45;100718.59;5075500;28;20032;-78
2021/12/12 05:16:34;;;;;;;3.75;1.23;;;;;;;3.44;85.52;100720.19;5074186;28;20052;-79
2021/12/12 05:19:08;;;;;;;4.60;1.85;;;;;;;3.50;85.22;100716.09;5075414;28;20032;-78
2021/12/12 05:21:38;;;;;;;6.60;2.40;;;;;;;3.42;86.13;100716.00;5075125;28;20024;-78
2021/12/12 05:24:07;;;;;;;4.85;2.03;;;;;;;3.42;85.83;100713.31;5038516;28;20049;-77
2021/12/12 05:26:55;;;;;;;3.58;1.50;;;;;;;3.36;86.28;100713.94;5075315;28;20083;-83
2021/12/12 05:29:28;;;;;;;;;;;;;;;3.41;86.60;100714.31;5075272;28;20048;-78
2021/12/12 05:31:56;;;;;;;4.97;1.60;;;;;;;3.33;86.87;100725.75;5075325;28;20376;-78
2021/12/12 05:34:27;;;;;;;4.68;1.73;;;;;;;3.36;87.69;100703.31;5075008;28;20056;-77
2021/12/12 05:36:53;;;;;;;6.28;1.80;;;;;;;3.40;87.24;100707.34;5074989;28;20048;-86
2021/12/12 05:39:20;;;;;;;10.55;3.42;;;;;;;3.32;87.54;100699.25;5074859;28;20094;-77
2021/12/12 05:41:48;;;;;;;6.57;2.00;;;;;;;3.40;87.50;100705.47;5074555;28;20044;-77
2021/12/12 05:44:14;;;;;;;5.70;1.98;;;;;;;3.32;88.00;100693.94;5074465;28;20028;-79
2021/12/12 05:46:40;;;;;;;6.55;2.20;;;;;;;3.35;88.64;100701.63;5075704;28;20032;-78
2021/12/12 05:49:06;;;;;;;6.00;1.77;;;;;;;3.37;88.23;100694.31;5073771;28;20119;-77
2021/12/12 05:51:33;;;;;;;6.70;2.33;;;;;;;3.31;88.51;100695.75;5074836;28;20060;-78
2021/12/12 05:54:00;;;;;;;6.80;2.10;;;;;;;3.36;88.72;100685.50;5074768;28;20074;-79
2021/12/12 05:56:28;;;;;;;;;;;;;;;3.37;88.83;100687.16;5075314;28;20459;-78
2021/12/12 05:58:55;;;;;;;8.60;1.85;;;;;;;3.44;88.61;100682.06;5075018;28;19912;-80
2021/12/12 06:01:20;;;;;;;7.45;2.13;;;;;;;3.40;88.52;100680.72;5074472;28;20103;-77
2021/12/12 06:03:47;;;;;;;5.55;2.53;;;;;;;3.43;88.98;100683.03;5074016;28;20413;-78
2021/12/12 06:06:18;;;;;;;5.18;2.00;;;;;;;3.46;88.56;100686.25;5074151;28;20036;-78
2021/12/12 06:08:45;;;;;;;7.32;1.98;;;;;;;3.41;89.12;100687.69;5075293;28;20028;-81
2021/12/12 06:11:14;;;;;;;8.38;2.20;;;;;;;3.39;89.18;100689.69;5075298;28;20032;-81
2021/12/12 06:13:41;;;;;;;6.68;2.42;;;;;;;3.42;89.23;100684.03;5074671;28;20031;-77
2021/12/12 06:16:07;;;;;;;5.60;2.38;;;;;;;3.39;89.14;100681.69;5075121;28;20063;-80
2021/12/12 06:18:35;;;;;;;4.97;2.08;;;;;;;3.38;89.07;100691.50;5074201;28;20032;-78
2021/12/12 06:21:02;;;;;;;7.07;2.25;;;;;;;3.38;89.54;100701.31;5073683;28;20044;-79
2021/12/12 06:23:29;;;;;;;6.78;2.30;;;;;;;3.37;89.65;100704.97;5074780;28;20510;-79
2021/12/12 06:25:56;;;;;;;5.97;2.90;;;;;;;3.40;89.84;100699.34;5074387;28;20029;-78
2021/12/12 06:28:28;;;;;;;6.97;2.17;;;;;;;3.49;89.50;100698.41;5074042;28;20024;-79
2021/12/12 06:30:55;;;;;;;6.60;2.25;;;;;;;3.50;89.76;100708.09;5089713;28;20029;-82
2021/12/12 06:33:20;;;;;;;4.55;2.22;;;;;;;3.57;89.44;100708.34;5074542;28;20033;-77
2021/12/12 06:35:46;;;;;;;7.93;2.45;;;;;;;3.52;89.84;100699.94;5074046;28;20135;-79
2021/12/12 06:38:13;;;;;;;6.05;2.60;;;;;;;3.52;89.91;100698.13;5074290;28;20037;-80
2021/12/12 06:40:41;;;;;;;5.38;2.05;;;;;;;3.56;89.81;100682.69;5073838;28;20475;-79
2021/12/12 06:43:09;;;;;;;8.68;2.58;;;;;;;3.57;89.74;100685.19;5074530;28;20351;-80
2021/12/12 06:45:35;;;;;;;7.18;2.15;;;;;;;3.59;90.13;100680.50;5074177;28;20379;-79
2021/12/12 06:48:05;;;;;;;4.65;1.75;;;;;;;3.63;89.79;100694.38;5074190;28;20035;-79
2021/12/12 06:50:31;;;;;;;6.78;2.20;;;;;;;3.60;90.24;100698.19;5073676;28;20024;-78
2021/12/12 06:52:57;;;;;;;5.53;2.53;;;;;;;3.60;90.22;100708.00;5074157;28;20041;-79
2021/12/12 06:55:23;;;;;;;7.65;2.17;;;;;;;3.73;89.97;100711.13;5074872;28;20378;-80
2021/12/12 06:57:49;;;;;;;5.60;2.17;;;;;;;3.65;90.10;100698.56;5074677;28;20468;-81
2021/12/12 07:00:18;;;;;;;6.20;1.83;;;;;;;3.69;90.19;100715.09;5075184;28;20033;-80
2021/12/12 07:02:44;;;;;;;12.63;2.72;;;;;;;3.64;90.10;100694.22;5073227;28;20028;-79
2021/12/12 07:05:18;;;;;;;5.35;2.08;;;;;;;3.70;90.02;100685.63;5075115;28;20036;-79
2021/12/12 07:07:45;;;;;;;5.85;2.03;;;;;;;3.70;90.21;100690.97;5074496;28;20037;-80
2021/12/12 07:10:13;;;;;;;5.95;2.30;;;;;;;3.71;90.27;100708.63;5075454;28;20033;-79
2021/12/12 07:12:40;;;;;;;6.90;2.95;;;;;;;3.70;90.59;100693.63;5072470;28;20032;-78
2021/12/12 07:15:09;;;;;;;7.63;2.10;;;;;;;3.70;90.27;100693.63;5072597;28;20033;-78
2021/12/12 07:17:35;;;;;;;6.78;2.45;;;;;;;3.74;90.41;100687.00;5075747;28;20034;-80
2021/12/12 07:20:02;;;;;;;5.43;2.35;;;;;;;3.74;90.33;100692.31;5078092;28;20137;-80
2021/12/12 07:22:28;;;;;;;5.93;2.05;;;;;;;3.80;90.35;100705.03;5047804;27;20035;-77
2021/12/12 07:24:54;;;;;;;5.38;1.80;;;;;;;3.89;90.13;100691.78;5082951;27;20037;-80
2021/12/12 07:27:19;;;;;;;7.57;2.30;;;;;;;3.83;90.26;100688.72;5076726;28;20028;-79
2021/12/12 07:29:45;;;;;;;5.88;2.20;;;;;;;3.87;90.01;100683.09;5078556;28;20044;-78
2021/12/12 07:32:10;;;;;;;7.60;3.08;;;;;;;3.83;90.41;100679.88;5080319;28;20088;-78
2021/12/12 07:34:37;;;;;;;5.05;2.20;;;;;;;3.89;90.32;100673.09;5079459;28;20031;-78
2021/12/12 07:37:06;;;;;;;4.93;1.98;;;;;;;3.87;90.18;100688.41;5080119;28;20029;-80
2021/12/12 07:39:32;;;;;;;5.60;2.00;;;;;;;3.88;90.71;100690.94;5080073;28;20056;-78
2021/12/12 07:42:00;;;;;;;6.88;2.25;;;;;;;3.90;90.88;100715.59;5079056;28;20060;-80
2021/12/12 07:44:29;;;;;;;5.75;2.10;;;;;;;3.91;90.63;100698.63;5081057;28;20056;-81
2021/12/12 07:47:31;;;;;;;5.57;2.33;;;;;;;3.90;90.72;100707.63;5084696;28;20051;-79
2021/12/12 07:49:57;;;;;;;5.15;2.38;;;;;;;3.94;90.51;100697.47;5084022;28;20036;-84
2021/12/12 07:52:27;;;;;;;6.70;2.80;;;;;;;3.94;90.50;100689.47;5085574;28;20094;-82
2021/12/12 07:54:55;;;;;;;6.47;2.20;;;;;;;4.02;90.31;100693.03;5082647;28;20130;-79
2021/12/12 07:57:21;;;;;;;5.97;2.55;;;;;;;4.01;90.67;100702.00;5082121;28;20028;-80
2021/12/12 07:59:47;;;;;;;9.73;2.67;;;;;;;4.00;90.80;100707.50;5081144;28;20036;-80
2021/12/12 08:02:15;;;;;;;;;;;;;;;3.99;90.97;100712.00;5084924;28;20028;-80
2021/12/12 08:04:42;;;;;;;5.30;2.58;;;;;;;3.96;90.88;100716.78;5100526;28;19912;-80
2021/12/12 08:07:11;;;;;;;5.72;2.83;;;;;;;3.99;91.04;100722.66;5082678;28;20034;-80
2021/12/12 08:09:38;;;;;;;6.40;2.35;;;;;;;4.02;91.06;100724.19;5080306;28;20100;-79
2021/12/12 08:12:04;;;;;;;7.80;2.88;;;;;;;3.99;90.82;100708.50;5080541;28;20035;-78
2021/12/12 08:14:31;;;;;;;5.90;2.53;;;;;;;3.96;90.87;100717.63;5084156;28;20035;-80
2021/12/12 08:16:57;;;;;;;4.80;2.38;;;;;;;3.98;91.36;100725.47;5082802;28;20032;-80
2021/12/12 08:19:27;;;;;;;9.55;2.75;;;;;;;3.98;91.34;100731.66;5081604;28;20104;-80
2021/12/12 08:22:01;;;;;;;7.60;3.55;;;;;;;3.98;91.00;100736.97;5083270;28;20040;-80
2021/12/12 08:24:27;;;;;;;4.85;2.15;;;;;;;3.98;91.18;100736.16;5082075;28;20040;-79
2021/12/12 08:26:52;;;;;;;;;;;;;;;4.00;91.55;100751.00;5097929;28;20052;-79
2021/12/12 08:29:19;;;;;;;6.32;2.28;;;;;;;4.06;91.13;100763.72;5078616;28;19953;-78
2021/12/12 08:31:46;;;;;;;6.60;2.72;;;;;;;4.06;91.36;100766.38;5080738;28;20043;-80
2021/12/12 08:34:13;;;;;;;6.85;3.15;;;;;;;4.11;91.16;100757.94;5080196;28;20029;-79
2021/12/12 08:36:43;;;;;;;5.20;2.10;;;;;;;4.16;91.35;100766.28;5078896;28;20044;-78
2021/12/12 08:39:10;;;;;;;5.65;2.55;;;;;;;4.14;91.34;100789.59;5079218;28;20119;-77
2021/12/12 08:41:36;;;;;;;5.47;1.95;;;;;;;4.14;91.21;100795.78;5079665;28;20033;-77
2021/12/12 08:44:06;;;;;;;5.45;2.45;;;;;;;4.17;91.30;100799.97;5079057;28;20074;-78
2021/12/12 08:46:32;;;;;;;5.72;2.40;;;;;;;4.16;91.23;100801.78;5079517;28;20036;-79
2021/12/12 08:48:59;;;;;;;6.15;2.35;;;;;;;4.17;91.33;100794.63;5078708;28;20025;-77
2021/12/12 08:51:32;;;;;;;5.68;2.53;;;;;;;4.23;91.36;100783.34;5077533;28;20541;-78
2021/12/12 08:54:02;;;;;;;6.20;2.63;;;;;;;4.26;91.25;100780.38;5077134;28;20035;-80
2021/12/12 08:56:41;;;;;;;6.20;2.40;;;;;;;4.28;91.07;100770.41;5076572;28;20037;-76
2021/12/12 08:59:08;;;;;;;7.63;3.05;;;;;;;4.31;91.55;100779.91;5092866;28;20040;-77
2021/12/12 09:01:33;;;;;;;5.03;2.50;;;;;;;4.37;91.54;100776.59;5078138;28;20043;-77
2021/12/12 09:04:02;;;;;;;5.78;2.50;;;;;;;4.38;91.40;100771.13;5078216;28;20032;-80
2021/12/12 09:06:31;;;;;;;6.90;2.72;;;;;;;4.38;91.45;100788.97;5080235;28;20094;-79
2021/12/12 09:09:00;;;;;;;9.73;3.63;;;;;;;4.40;91.11;100774.47;5078271;28;20066;-79
2021/12/12 09:11:44;;;;;;;6.10;2.50;;;;;;;4.46;91.69;100779.19;5078018;28;20036;-79
2021/12/12 09:14:13;;;;;;;5.90;2.63;;;;;;;4.48;91.57;100787.00;5078755;28;20454;-78
2021/12/12 09:16:49;;;;;;;7.28;3.00;;;;;;;4.44;91.62;100783.00;5080195;28;20039;-79
2021/12/12 09:19:40;;;;;;;9.05;3.53;;;;;;;4.45;91.43;100798.88;5083362;28;20043;-79
2021/12/12 09:22:29;;;;;;;10.90;3.50;;;;;;;4.46;91.62;100803.22;5081096;28;20482;-77
2021/12/12 09:25:19;;;;;;;9.52;3.67;;;;;;;4.47;91.42;100802.22;5041970;27;20040;-78
2021/12/12 09:27:51;;;;;;;10.05;3.35;;;;;;;4.48;91.53;100795.84;5076984;28;20041;-78
2021/12/12 09:30:23;;;;;;;8.32;3.60;;;;;;;4.51;91.59;100786.72;5080110;28;20058;-78
2021/12/12 09:33:12;;;;;;;7.43;2.90;;;;;;;4.50;91.57;100799.22;5078288;28;20474;-80
2021/12/12 09:35:45;;;;;;;6.72;3.13;;;;;;;4.49;91.59;100796.69;5078007;28;20070;-80
2021/12/12 09:38:40;;;;;;;6.90;3.17;;;;;;;4.52;91.79;100799.91;5078483;28;20035;-78
2021/12/12 09:41:23;;;;;;;12.73;4.13;;;;;;;4.56;92.20;100792.41;5078905;28;20029;-77
2021/12/12 09:44:30;;;;;;;9.90;3.85;;;;;;;4.61;92.00;100799.97;5077019;28;20037;-79
2021/12/12 09:47:01;;;;;;;8.63;3.97;;;;;;;4.65;91.80;100804.84;5076479;28;20032;-78
2021/12/12 09:53:07;;;;;;;8.98;3.47;;;;;;;4.66;91.94;100803.81;5075272;28;20038;-77
2021/12/12 09:55:39;;;;;;;9.35;3.80;;;;;;;4.71;91.72;100808.69;5073568;28;20120;-75
2021/12/12 09:58:27;;;;;;;7.65;3.70;;;;;;;4.72;92.09;100811.19;5089213;28;20120;-75
2021/12/12 10:01:03;;;;;;;10.77;5.05;;;;;;;4.79;91.47;100806.91;5074418;28;20372;-78
2021/12/12 10:03:48;;;;;;;12.00;4.13;;;;;;;4.83;92.18;100802.94;5092866;28;20035;-75
2021/12/12 10:06:32;;;;;;;10.75;3.75;;;;;;;4.86;91.68;100802.59;5073433;28;20035;-78
2021/12/12 10:09:15;;;;;;;9.45;4.05;;;;;;;4.91;91.43;100801.28;5073389;28;20033;-75
2021/12/12 10:11:40;;;;;;;13.77;4.95;;;;;;;4.95;91.36;100808.84;5089409;28;20356;-78
2021/12/12 10:14:31;;;;;;;9.57;4.20;;;;;;;4.99;91.78;100804.84;5073383;28;20111;-77
2021/12/12 10:17:30;;;;;;;12.50;4.55;;;;;;;5.04;91.63;100807.03;5061351;28;20087;-76
2021/12/12 10:20:02;;;;;;;9.05;3.58;;;;;;;5.04;91.59;100799.84;5088940;28;20356;-77
2021/12/12 10:22:41;;;;;;;12.32;4.85;;;;;;;5.03;91.57;100811.53;5073422;28;20463;-77
2021/12/12 10:25:11;;;;;;;7.22;3.20;;;;;;;5.00;91.35;100803.03;5074267;28;20128;-77
2021/12/12 10:28:21;;;;;;;11.00;3.85;;;;;;;5.01;91.59;100805.53;5073678;28;20036;-76
2021/12/12 10:31:04;;;;;;;10.50;3.58;;;;;;;4.97;91.29;100814.84;5072601;28;20040;-78
2021/12/12 10:33:39;;;;;;;9.10;3.15;;;;;;;4.98;91.47;100805.84;5073942;28;20064;-76
2021/12/12 10:36:14;;;;;;;9.13;4.05;;;;;;;4.97;91.84;100814.84;5073578;28;20045;-77
2021/12/12 10:39:04;;;;;;;7.90;3.05;;;;;;;4.99;91.31;100806.69;5073464;28;20082;-77
2021/12/12 10:41:39;;;;;;;9.23;3.63;;;;;;;4.97;91.87;100803.34;5073154;28;20048;-77
2021/12/12 10:44:14;;;;;;;9.20;3.00;;;;;;;4.97;91.68;100811.34;5073256;28;20032;-76
2021/12/12 10:46:50;;;;;;;7.00;2.58;;;;;;;4.98;92.10;100797.84;5073566;28;20032;-77
2021/12/12 10:49:21;;;;;;;;;;;;;;;4.98;91.68;100800.50;5073744;28;20040;-75
2021/12/12 10:51:54;;;;;;;6.75;2.63;;;;;;;4.99;91.70;100796.84;5074251;28;19912;-76
2021/12/12 10:54:37;;;;;;;9.80;3.10;;;;;;;5.02;91.99;100795.66;5078005;28;20024;-76
2021/12/12 10:57:07;;;;;;;7.13;2.90;;;;;;;5.04;92.23;100799.84;5077185;28;20029;-76
2021/12/12 10:59:44;;;;;;;6.05;2.70;;;;;;;5.07;91.88;100802.22;5079616;28;20073;-76
2021/12/12 11:02:14;;;;;;;8.90;3.13;;;;;;;5.07;91.96;100807.56;5085477;28;20067;-75
2021/12/12 11:05:01;;;;;;;8.90;3.25;;;;;;;5.10;92.41;100790.38;5084695;28;20016;-75
2021/12/12 11:07:46;;;;;;;8.20;3.03;;;;;;;5.11;92.27;100790.22;5085087;28;20039;-76
2021/12/12 11:10:18;;;;;;;7.38;3.08;;;;;;;5.16;92.21;100798.59;5084413;28;20028;-76
2021/12/12 11:12:55;;;;;;;6.97;3.58;;;;;;;5.18;92.29;100795.75;5085666;28;20036;-76
2021/12/12 11:15:22;;;;;;;6.43;2.65;;;;;;;5.18;92.22;100787.75;5087276;28;20620;-76
2021/12/12 11:18:14;;;;;;;6.47;2.63;;;;;;;5.21;91.93;100793.56;5086353;28;20033;-75
2021/12/12 11:20:42;;;;;;;9.77;2.95;;;;;;;5.19;92.21;100798.28;5076650;28;20390;-75
2021/12/12 11:23:13;;;;;;;7.22;2.70;;;;;;;5.18;92.23;100799.28;5044534;27;20588;-75
2021/12/12 11:26:17;;;;;;;7.80;3.60;;;;;;;5.21;92.13;100792.75;5077208;28;20147;-77
2021/12/12 11:28:48;;;;;;;6.80;3.25;;;;;;;5.24;92.04;100793.25;5075391;28;20051;-78
2021/12/12 11:31:25;;;;;;;8.30;2.72;;;;;;;5.28;92.34;100795.63;5076806;28;20020;-76
2021/12/12 11:33:53;;;;;;;6.10;2.83;;;;;;;5.33;92.36;100791.47;5076418;28;20063;-76
2021/12/12 11:36:26;;;;;;;6.75;2.85;;;;;;;5.39;92.74;100796.16;5076717;28;20045;-76
2021/12/12 11:39:13;;;;;;;8.50;3.22;;;;;;;5.39;92.55;100796.16;5077383;28;20042;-77
2021/12/12 11:42:02;;;;;;;5.75;2.65;;;;;;;5.41;92.02;100801.34;5076563;28;20050;-75
2021/12/12 11:44:30;;;;;;;7.15;2.70;;;;;;;5.42;92.27;100795.81;5076082;28;20121;-77
2021/12/12 11:47:23;;;;;;;6.88;3.20;;;;;;;5.46;91.99;100791.84;5092019;28;20044;-75
2021/12/12 11:50:03;;;;;;;9.18;3.00;;;;;;;5.49;92.21;100798.69;5076377;28;20033;-77
2021/12/12 11:52:57;;;;;;;7.00;2.47;;;;;;;5.51;92.80;100788.69;5076081;28;20028;-76
2021/12/12 11:55:46;;;;;;;6.97;2.72;;;;;;;5.53;92.67;100794.72;5076748;28;20127;-74
2021/12/12 11:58:32;;;;;;;7.40;3.22;;;;;;;5.56;92.09;100791.69;5076578;28;20055;-77
2021/12/12 12:01:17;;;;;;;6.15;2.50;;;;;;;5.56;92.55;100805.06;5076089;28;20471;-77
2021/12/12 12:04:07;;;;;;;5.03;2.67;;;;;;;5.58;92.65;100798.53;5075612;28;20032;-75
2021/12/12 12:07:05;;;;;;;6.57;3.00;;;;;;;5.62;92.84;100808.91;5076701;28;20040;-76
2021/12/12 12:09:44;;;;;;;7.85;3.38;;;;;;;5.65;92.53;100804.09;5074800;28;20047;-77
2021/12/12 12:12:17;;;;;;;6.63;3.05;;;;;;;5.63;92.55;100811.44;5076289;28;20029;-76
2021/12/12 12:14:58;;;;;;;7.75;3.40;;;;;;;5.64;92.28;100815.78;5076060;28;20111;-76
2021/12/12 12:17:31;;;;;;;6.68;3.08;;;;;;;5.65;92.88;100820.13;5091440;28;20020;-76
2021/12/12 12:19:59;;;;;;;8.68;3.95;;;;;;;5.66;92.80;100823.63;5076180;28;20030;-79
2021/12/12 12:22:44;;;;;;;6.22;2.88;;;;;;;5.65;92.42;100820.13;5076730;28;20029;-77